Current | Forecast
Updated: 8:30 AM CEST on May 25, 2017
Observed at Asturias, Spain
Temperature 18°C
Humidity 83%
Dew Point 15°C
Wind WSW at 11 km/h
Pressure 1013 hPa (Steady)
Conditions Partly Cloudy
Visibility 9.0 kilometers
UV 1 out of 16
Clouds (FEW) : 2438 m
Yesterday's Maximum 20°C
Yesterday's Minimum 14°C approx.
Yesterday's Heating Degree Days 2 approx.
Sunrise6:50 AM CEST
Sunset9:52 PM CEST
Moon Rise6:54 AM CEST
Moon Set9:27 PM CEST
Moon PhaseMoon Phase
Waning Crescent
Raw METARMETAR LEAS 250630Z 25006KT 9000 FEW080 18/15 Q1013 NOSIG


Monday
. High: 69° F.
Tuesday
. High: 75° F.
Wednesday
. High: 60° F.
Thursday
. High: 62° F.
Friday
. High: 73° F.
Saturday
. High: 69° F.
Sunday
. High: 64° F.
Monday
. High: 77° F.

Click here for Marine Information
Scientific forecaster discussion (NWS)

Units: English | Metric

Find the Weather for any City, State or Zipcode, or Country:

U.S. State List | Severe Weather | Tropical Storms | Ski Conditions
United States | Canada | Central America | South America | Asia | Europe | Australia | Africa | Islands

Weather Underground

© Copyright 2017
The Weather Company, LLC